KEAR

Kearney Regional Airport

Kearney, Nebraska, USA
METAR KEAR 260256Z AUTO 00000KT 10SM CLR M02/M07 A3002 RMK AO2 SLP186 T10171072 51010 FZRANO
Observed Flight Rules
Feb-26 @ 02:56 UTC (30 minutes ago) Visual Flight Rules
Wind Visibility Clouds
Calm 10 miles
  • Clear skies
Temperatures Readings
Current -2°C / 28°F
Dewpoint -7°C / 19°F
Humidity 69%
Altimeter 30.02" Hg
Pressure 1018.6 hPa
Elevation 649
METAR KEAR 260256Z AUTO 00000KT 10SM CLR M02/M07 A3002 RMK AO2 SLP186 T10171072 51010 FZRANO
Observed Flight Rules
Feb-26 @ 02:56 UTC
(30 minutes ago)
VFR
Wind Visibility
Calm 10 miles
Clouds
  • Clear skies
Temperature Dewpoint
-2°C / 28°F -7°C / 19°F
Humidity Altimeter Pressure
69% 30.02" Hg 1018.6 hPa